Arlington, Mississippi
Current Conditions -  °F | °C
As of 7:15 AM on Friday 31 Oct 2014 (Local Time) from K1R7 Reporting Station
Clear Clear  
Wind Chill: 10°   Ceiling: Unl
Heat Index: 10°   Visibility: 10mi
Dew Point:   Wind: 5mph
Humidity: 82%   Direction: 270°W
Pressure: 30.05"   Gusts: NA
Location:  31.4439°N, 90.4692°W
Report Text: K1R7 311215Z AUTO 27004KT 10SM CLR 10/07 A3005 RMK AO2
Loading
Personal Weather Stations






























Interactive Weather Map
Tropical Storm Tracking
New forecast layout! Learn more

10-Day Weather Forecast

Advertisements
Track Severe Weather on mobile